createdAt,value
2018-07-08T00:01:42.549Z,16.70
2018-07-08T00:04:11.645Z,16.70
2018-07-08T00:06:40.738Z,16.70
2018-07-08T00:09:09.760Z,16.60
2018-07-08T00:11:38.676Z,16.60
2018-07-08T00:14:07.533Z,16.60
2018-07-08T00:16:36.480Z,16.60
2018-07-08T00:19:05.256Z,16.50
2018-07-08T00:21:34.116Z,16.40
2018-07-08T00:24:03.243Z,16.40
2018-07-08T00:26:32.312Z,16.40
2018-07-08T00:29:01.193Z,16.40
2018-07-08T00:31:30.155Z,16.30
2018-07-08T00:33:58.925Z,16.30
2018-07-08T00:36:28.960Z,16.30
2018-07-08T00:38:57.855Z,16.30
2018-07-08T00:41:27.217Z,16.30
2018-07-08T00:43:56.085Z,16.20
2018-07-08T00:46:25.495Z,16.30
2018-07-08T00:48:55.061Z,16.20
2018-07-08T00:51:24.205Z,16.20
2018-07-08T00:53:53.043Z,16.20
2018-07-08T00:56:22.030Z,16.10
2018-07-08T00:58:51.034Z,16.10
2018-07-08T01:01:20.028Z,16.10
2018-07-08T01:03:48.958Z,16.10
2018-07-08T01:06:17.894Z,16.20
2018-07-08T01:08:46.824Z,16.10
2018-07-08T01:11:16.441Z,16.10
2018-07-08T01:13:45.275Z,16.10
2018-07-08T01:16:14.038Z,16.20
2018-07-08T01:18:42.738Z,16.10
2018-07-08T01:21:11.665Z,16.10
2018-07-08T01:23:40.602Z,16.00
2018-07-08T01:26:11.581Z,16.00
2018-07-08T01:28:41.593Z,16.00
2018-07-08T01:31:11.839Z,16.00
2018-07-08T01:33:40.885Z,15.90
2018-07-08T01:36:10.282Z,16.00
2018-07-08T01:38:39.251Z,15.90
2018-07-08T01:41:08.066Z,15.80
2018-07-08T01:43:37.006Z,15.90
2018-07-08T01:46:06.318Z,15.90
2018-07-08T01:48:35.284Z,15.90
2018-07-08T01:51:04.274Z,15.80
2018-07-08T01:56:01.772Z,15.80
2018-07-08T01:58:30.738Z,15.80
2018-07-08T02:00:59.650Z,15.80
2018-07-08T02:03:28.802Z,15.70
2018-07-08T02:05:57.866Z,15.70
2018-07-08T02:08:26.922Z,15.60
2018-07-08T02:10:55.867Z,15.50
2018-07-08T02:13:25.365Z,15.50
2018-07-08T02:15:54.389Z,15.40
2018-07-08T02:18:23.329Z,15.40
2018-07-08T02:20:52.835Z,15.40
2018-07-08T02:23:21.896Z,15.40
2018-07-08T02:25:50.884Z,15.50
2018-07-08T02:28:19.664Z,15.50
2018-07-08T02:30:48.642Z,15.40
2018-07-08T02:33:17.900Z,15.40
2018-07-08T02:35:47.004Z,15.40
2018-07-08T02:38:16.250Z,15.40
2018-07-08T02:40:45.885Z,15.40
2018-07-08T02:43:15.025Z,15.40
2018-07-08T02:45:44.092Z,15.40
2018-07-08T02:48:13.175Z,15.40
2018-07-08T02:50:42.166Z,15.50
2018-07-08T02:53:11.147Z,15.40
2018-07-08T02:55:40.101Z,15.40
2018-07-08T02:58:08.952Z,15.40
2018-07-08T03:00:37.764Z,15.40
2018-07-08T03:03:06.715Z,15.30
2018-07-08T03:05:35.724Z,15.30
2018-07-08T03:08:04.985Z,15.30
2018-07-08T03:10:33.908Z,15.20
2018-07-08T03:13:02.920Z,15.20
2018-07-08T03:15:31.919Z,15.20
2018-07-08T03:18:01.040Z,15.20
2018-07-08T03:20:30.207Z,15.20
2018-07-08T03:22:59.265Z,15.10
2018-07-08T03:25:28.102Z,15.10
2018-07-08T03:27:57.059Z,15.10
2018-07-08T03:30:25.960Z,15.10
2018-07-08T03:32:56.060Z,15.00
2018-07-08T03:35:25.111Z,15.00
2018-07-08T03:37:54.179Z,15.00
2018-07-08T03:40:23.374Z,15.00
2018-07-08T03:42:52.501Z,15.00
2018-07-08T03:45:21.645Z,15.00
2018-07-08T03:47:50.761Z,15.00
2018-07-08T03:50:20.284Z,15.00
2018-07-08T03:52:50.954Z,15.00
2018-07-08T03:55:20.286Z,15.10
2018-07-08T03:57:49.519Z,15.00
2018-07-08T04:00:18.846Z,15.10
2018-07-08T04:02:48.130Z,15.10
2018-07-08T04:05:17.732Z,15.10
2018-07-08T04:07:46.960Z,15.10
2018-07-08T04:10:16.149Z,15.10
2018-07-08T04:12:45.166Z,15.10
2018-07-08T04:15:14.326Z,15.10
2018-07-08T04:17:43.530Z,15.10
2018-07-08T04:20:12.428Z,15.10
2018-07-08T04:22:46.047Z,15.10
2018-07-08T04:25:15.227Z,15.10
2018-07-08T04:27:44.783Z,15.00
2018-07-08T04:30:13.999Z,14.90
2018-07-08T04:32:43.105Z,14.90
2018-07-08T04:35:12.577Z,15.00
2018-07-08T04:37:41.853Z,15.00
2018-07-08T04:40:11.364Z,15.10
2018-07-08T04:42:40.606Z,15.20
2018-07-08T04:45:09.632Z,15.30
2018-07-08T04:47:38.735Z,15.40
2018-07-08T04:50:07.898Z,15.40
2018-07-08T04:52:36.776Z,15.50
2018-07-08T04:55:05.752Z,15.60
2018-07-08T04:57:34.789Z,15.70
2018-07-08T05:02:32.637Z,15.90
2018-07-08T05:05:01.902Z,16.00
2018-07-08T05:07:30.713Z,16.10
2018-07-08T05:10:00.182Z,16.20
2018-07-08T05:12:31.747Z,16.20
2018-07-08T05:15:00.812Z,16.30
2018-07-08T05:17:29.965Z,16.40
2018-07-08T05:19:59.208Z,16.40
2018-07-08T05:22:28.064Z,16.30
2018-07-08T05:24:57.260Z,16.40
2018-07-08T05:27:26.692Z,16.30
2018-07-08T05:29:56.005Z,16.50
2018-07-08T05:32:25.154Z,16.60
2018-07-08T05:34:54.636Z,16.70
2018-07-08T05:37:24.167Z,16.90
2018-07-08T05:39:54.096Z,17.10
2018-07-08T05:42:23.204Z,17.20
2018-07-08T05:44:52.058Z,17.30
2018-07-08T05:47:20.981Z,17.50
2018-07-08T05:49:49.850Z,17.60
2018-07-08T05:52:18.693Z,17.80
2018-07-08T05:57:16.195Z,18.00
2018-07-08T05:59:45.409Z,18.10
2018-07-08T06:02:14.730Z,18.10
2018-07-08T06:04:43.583Z,18.20
2018-07-08T06:07:12.438Z,18.20
2018-07-08T06:09:48.155Z,18.20
2018-07-08T06:12:19.740Z,18.10
2018-07-08T06:14:53.941Z,18.20
2018-07-08T06:17:23.412Z,18.30
2018-07-08T06:19:52.952Z,18.40
2018-07-08T06:22:21.890Z,18.40
2018-07-08T06:24:50.817Z,18.60
2018-07-08T06:27:21.075Z,18.70
2018-07-08T06:29:49.875Z,18.80
2018-07-08T06:32:18.797Z,18.90
2018-07-08T06:34:47.577Z,19.00
2018-07-08T06:37:17.959Z,19.00
2018-07-08T06:39:46.818Z,19.10
2018-07-08T06:42:15.671Z,18.90
2018-07-08T06:44:45.891Z,18.80
2018-07-08T06:47:15.123Z,18.70
2018-07-08T06:49:44.200Z,18.90
2018-07-08T06:52:12.920Z,19.00
2018-07-08T06:54:41.650Z,19.10
2018-07-08T06:57:10.437Z,19.30
2018-07-08T06:59:39.162Z,19.30
2018-07-08T07:02:08.016Z,19.40
2018-07-08T07:04:36.690Z,19.40
2018-07-08T07:07:05.466Z,19.50
2018-07-08T07:09:34.246Z,19.70
2018-07-08T07:12:02.955Z,19.90
2018-07-08T07:14:31.705Z,20.00
2018-07-08T07:17:00.864Z,20.30
2018-07-08T07:19:29.678Z,20.40
2018-07-08T07:21:58.643Z,20.20
2018-07-08T07:24:27.271Z,20.20
2018-07-08T07:26:56.012Z,20.20
2018-07-08T07:29:24.749Z,20.40
2018-07-08T07:31:53.413Z,20.30
2018-07-08T07:34:22.250Z,20.30
2018-07-08T07:36:51.033Z,20.40
2018-07-08T07:39:19.767Z,20.40
2018-07-08T07:41:48.596Z,20.60
2018-07-08T07:44:17.259Z,20.70
2018-07-08T07:46:47.238Z,20.70
2018-07-08T07:49:15.890Z,20.80
2018-07-08T07:51:44.669Z,21.10
2018-07-08T07:54:13.415Z,21.30
2018-07-08T07:56:42.199Z,21.20
2018-07-08T07:59:10.938Z,21.20
2018-07-08T08:01:39.710Z,21.20
2018-07-08T08:04:08.459Z,21.30
2018-07-08T08:06:37.252Z,21.20
2018-07-08T08:09:07.040Z,21.30
2018-07-08T08:11:35.756Z,21.30
2018-07-08T08:14:05.622Z,21.40
2018-07-08T08:16:34.353Z,21.60
2018-07-08T08:19:03.776Z,21.80
2018-07-08T08:21:32.483Z,22.00
2018-07-08T08:24:01.165Z,22.10
2018-07-08T08:26:30.399Z,22.10
2018-07-08T08:28:59.121Z,22.30
2018-07-08T08:31:28.026Z,22.50
2018-07-08T08:35:10.437Z,22.70
2018-07-08T08:37:41.158Z,22.60
2018-07-08T08:40:10.675Z,22.60
2018-07-08T08:42:39.511Z,22.50
2018-07-08T08:45:09.599Z,22.70
2018-07-08T08:47:38.379Z,22.80
2018-07-08T08:50:07.922Z,23.00
2018-07-08T08:52:36.703Z,23.20
2018-07-08T08:55:06.328Z,23.50
2018-07-08T08:57:35.016Z,23.50
2018-07-08T09:00:06.370Z,23.70
2018-07-08T09:02:35.033Z,23.40
2018-07-08T09:05:03.726Z,23.50
2018-07-08T09:07:32.369Z,23.70
2018-07-08T09:10:01.067Z,23.70
2018-07-08T09:12:29.943Z,23.80
2018-07-08T09:14:58.685Z,24.00
2018-07-08T09:17:27.364Z,24.20
2018-07-08T09:19:56.063Z,24.30
2018-07-08T09:22:24.886Z,24.40
2018-07-08T09:24:53.551Z,24.30
2018-07-08T09:27:22.235Z,24.30
2018-07-08T09:29:50.941Z,24.20
2018-07-08T09:32:19.709Z,23.90
2018-07-08T09:34:48.427Z,23.60
2018-07-08T09:37:17.127Z,23.90
2018-07-08T09:39:45.887Z,24.00
2018-07-08T09:42:15.423Z,24.00
2018-07-08T09:44:44.119Z,23.90
2018-07-08T09:47:13.565Z,24.00
2018-07-08T09:49:42.365Z,24.40
2018-07-08T09:52:11.090Z,24.70
2018-07-08T09:54:39.808Z,24.80
2018-07-08T09:57:08.578Z,24.80
2018-07-08T09:59:37.246Z,24.30
2018-07-08T10:02:06.030Z,24.50
2018-07-08T10:04:34.809Z,24.70
2018-07-08T10:07:03.484Z,24.70
2018-07-08T10:09:32.241Z,24.80
2018-07-08T10:12:01.031Z,25.10
2018-07-08T10:14:29.827Z,24.50
2018-07-08T10:16:58.538Z,24.80
2018-07-08T10:19:27.381Z,24.90
2018-07-08T10:21:56.020Z,25.00
2018-07-08T10:24:24.759Z,25.30
2018-07-08T10:28:09.240Z,25.80
2018-07-08T10:30:37.950Z,26.10
2018-07-08T10:33:06.680Z,26.30
2018-07-08T10:35:46.485Z,26.20
2018-07-08T10:38:16.030Z,26.00
2018-07-08T10:40:45.254Z,25.80
2018-07-08T10:43:14.049Z,25.60
2018-07-08T10:45:42.828Z,25.50
2018-07-08T10:48:11.537Z,25.60
2018-07-08T10:50:40.255Z,25.50
2018-07-08T10:53:09.067Z,25.70
2018-07-08T10:55:37.799Z,25.60
2018-07-08T10:58:07.293Z,25.60
2018-07-08T11:00:36.001Z,25.80
2018-07-08T11:03:04.754Z,26.40
2018-07-08T11:05:33.523Z,26.80
2018-07-08T11:08:02.261Z,26.80
2018-07-08T11:10:30.986Z,26.60
2018-07-08T11:12:59.669Z,25.90
2018-07-08T11:15:28.378Z,26.00
2018-07-08T11:17:57.063Z,26.60
2018-07-08T11:20:25.779Z,26.90
2018-07-08T11:22:54.558Z,26.90
2018-07-08T11:25:23.276Z,26.60
2018-07-08T11:27:51.988Z,26.50
2018-07-08T11:30:20.630Z,26.80
2018-07-08T11:32:49.284Z,26.90
2018-07-08T11:35:17.994Z,27.20
2018-07-08T11:37:46.696Z,27.60
2018-07-08T11:40:15.385Z,28.10
2018-07-08T11:42:44.101Z,28.40
2018-07-08T11:45:12.943Z,28.60
2018-07-08T11:47:41.692Z,28.20
2018-07-08T11:50:10.401Z,27.70
2018-07-08T11:52:39.117Z,27.00
2018-07-08T11:57:36.641Z,26.90
2018-07-08T12:00:05.967Z,26.80
2018-07-08T12:02:34.691Z,27.00
2018-07-08T12:05:03.553Z,27.50
2018-07-08T12:07:32.348Z,27.90
2018-07-08T12:10:01.053Z,27.70
2018-07-08T12:12:29.738Z,27.60
2018-07-08T12:14:58.408Z,27.50
2018-07-08T12:17:27.139Z,27.60
2018-07-08T12:19:56.054Z,28.00
2018-07-08T12:22:24.755Z,28.10
2018-07-08T12:24:53.452Z,28.20
2018-07-08T12:27:22.133Z,27.90
2018-07-08T12:29:51.027Z,27.80
2018-07-08T12:32:19.727Z,28.10
2018-07-08T12:34:48.382Z,28.50
2018-07-08T12:37:17.102Z,28.80
2018-07-08T12:39:46.446Z,28.20
2018-07-08T12:42:15.165Z,28.00
2018-07-08T12:44:44.079Z,27.50
2018-07-08T12:47:12.602Z,28.00
2018-07-08T12:49:41.376Z,28.50
2018-07-08T12:52:10.759Z,28.70
2018-07-08T12:57:07.734Z,29.00
2018-07-08T13:02:04.731Z,29.30
2018-07-08T13:04:33.372Z,29.20
2018-07-08T13:07:02.018Z,29.40
2018-07-08T13:09:30.647Z,29.50
2018-07-08T13:11:59.322Z,29.70
2018-07-08T13:14:28.573Z,29.60
2018-07-08T13:16:57.291Z,29.30
2018-07-08T13:19:26.003Z,29.10
2018-07-08T13:21:55.012Z,29.30
2018-07-08T13:24:24.849Z,29.40
2018-07-08T13:26:54.512Z,29.40
2018-07-08T13:29:23.218Z,29.50
2018-07-08T13:31:51.990Z,29.50
2018-07-08T13:34:20.653Z,29.50
2018-07-08T13:36:50.086Z,29.50
2018-07-08T13:39:18.747Z,29.50
2018-07-08T13:41:47.484Z,29.50
2018-07-08T13:44:17.184Z,29.50
2018-07-08T13:46:45.846Z,29.70
2018-07-08T13:49:14.727Z,29.90
2018-07-08T13:51:43.418Z,29.10
2018-07-08T13:54:12.988Z,29.30
2018-07-08T13:56:41.689Z,29.40
2018-07-08T13:59:10.675Z,29.40
2018-07-08T14:01:39.342Z,29.60
2018-07-08T14:04:08.076Z,28.50
2018-07-08T14:06:37.024Z,28.60
2018-07-08T14:09:06.929Z,28.40
2018-07-08T14:14:04.020Z,28.60
2018-07-08T14:16:32.764Z,28.70
2018-07-08T14:19:02.280Z,28.90
2018-07-08T14:21:30.992Z,29.20
2018-07-08T14:23:59.756Z,29.40
2018-07-08T14:26:28.546Z,29.40
2018-07-08T14:31:25.756Z,29.40
2018-07-08T14:33:54.509Z,29.40
2018-07-08T14:36:23.183Z,29.60
2018-07-08T14:38:51.865Z,29.70
2018-07-08T14:41:20.597Z,29.50
2018-07-08T14:43:49.336Z,29.60
2018-07-08T14:46:18.097Z,29.50
2018-07-08T14:48:46.875Z,29.40
2018-07-08T14:51:15.599Z,29.00
2018-07-08T14:53:44.596Z,29.10
2018-07-08T14:56:13.312Z,29.30
2018-07-08T14:58:42.086Z,29.40
2018-07-08T15:01:10.788Z,29.30
2018-07-08T15:03:39.550Z,29.30
2018-07-08T15:06:08.246Z,29.20
2018-07-08T15:08:37.044Z,29.30
2018-07-08T15:11:05.944Z,29.50
2018-07-08T15:13:34.659Z,28.90
2018-07-08T15:16:03.562Z,28.20
2018-07-08T15:18:32.844Z,28.50
2018-07-08T15:21:01.626Z,28.40
2018-07-08T15:25:59.633Z,28.80
2018-07-08T15:28:28.459Z,28.90
2018-07-08T15:30:57.093Z,29.10
2018-07-08T15:33:26.051Z,29.30
2018-07-08T15:35:54.708Z,29.20
2018-07-08T15:38:23.407Z,28.90
2018-07-08T15:40:52.242Z,28.90
2018-07-08T15:43:20.962Z,29.00
2018-07-08T15:45:49.699Z,29.30
2018-07-08T15:48:18.444Z,29.60
2018-07-08T15:50:47.161Z,29.80
2018-07-08T15:53:15.892Z,30.30
2018-07-08T15:55:45.286Z,30.70
2018-07-08T15:58:14.107Z,30.90
2018-07-08T16:00:42.816Z,31.00
2018-07-08T16:03:11.502Z,31.20
2018-07-08T16:05:40.207Z,31.10
2018-07-08T16:08:09.001Z,30.90
2018-07-08T16:10:37.662Z,30.40
2018-07-08T16:13:06.498Z,29.80
2018-07-08T16:18:03.671Z,28.70
2018-07-08T16:20:32.426Z,28.20
2018-07-08T16:23:01.113Z,28.00
2018-07-08T16:25:29.976Z,27.90
2018-07-08T16:27:58.666Z,27.70
2018-07-08T16:30:27.441Z,27.40
2018-07-08T16:32:56.266Z,27.30
2018-07-08T16:35:25.011Z,27.20
2018-07-08T16:37:53.703Z,27.10
2018-07-08T16:40:22.518Z,27.10
2018-07-08T16:42:51.269Z,27.00
2018-07-08T16:45:19.971Z,26.70
2018-07-08T16:47:48.727Z,26.70
2018-07-08T16:50:17.440Z,26.70
2018-07-08T16:52:46.257Z,26.50
2018-07-08T16:55:14.994Z,26.60
2018-07-08T16:57:43.750Z,26.60
2018-07-08T17:00:13.151Z,26.60
2018-07-08T17:02:41.858Z,26.50
2018-07-08T17:05:10.568Z,26.50
2018-07-08T17:07:39.278Z,26.50
2018-07-08T17:10:07.960Z,26.50
2018-07-08T17:12:36.738Z,26.50
2018-07-08T17:15:05.504Z,26.30
2018-07-08T17:20:02.717Z,26.30
2018-07-08T17:22:31.433Z,26.10
2018-07-08T17:25:00.609Z,26.10
2018-07-08T17:27:29.405Z,26.10
2018-07-08T17:29:58.103Z,26.10
2018-07-08T17:32:26.922Z,26.10
2018-07-08T17:34:55.637Z,25.90
2018-07-08T17:37:24.331Z,25.80
2018-07-08T17:39:53.234Z,25.60
2018-07-08T17:42:21.857Z,25.40
2018-07-08T17:44:50.590Z,25.30
2018-07-08T17:47:19.348Z,25.30
2018-07-08T17:49:48.131Z,25.20
2018-07-08T17:52:16.776Z,25.10
2018-07-08T17:57:13.861Z,25.10
2018-07-08T17:59:42.646Z,25.10
2018-07-08T18:02:11.392Z,25.10
2018-07-08T18:04:40.206Z,25.10
2018-07-08T18:09:37.907Z,25.10
2018-07-08T18:12:06.912Z,24.70
2018-07-08T18:14:35.597Z,24.70
2018-07-08T18:17:04.315Z,24.60
2018-07-08T18:19:32.983Z,24.70
2018-07-08T18:22:01.673Z,24.60
2018-07-08T18:24:30.388Z,24.50
2018-07-08T18:26:59.055Z,24.50
2018-07-08T18:29:27.927Z,24.10
2018-07-08T18:31:56.664Z,24.10
2018-07-08T18:34:25.391Z,24.20
2018-07-08T18:36:54.904Z,24.20
2018-07-08T18:39:23.625Z,24.10
2018-07-08T18:41:52.353Z,24.00
2018-07-08T18:44:21.026Z,23.80
2018-07-08T18:46:50.339Z,23.80
2018-07-08T18:49:19.052Z,23.70
2018-07-08T18:51:47.758Z,23.60
2018-07-08T18:54:16.540Z,23.60
2018-07-08T18:56:45.294Z,23.60
2018-07-08T18:59:14.685Z,23.50
2018-07-08T19:01:43.319Z,23.40
2018-07-08T19:04:12.017Z,23.30
2018-07-08T19:06:40.789Z,23.20
2018-07-08T19:09:09.473Z,23.10
2018-07-08T19:11:38.233Z,23.20
2018-07-08T19:14:07.069Z,23.10
2018-07-08T19:16:35.805Z,23.00
2018-07-08T19:19:04.538Z,22.80
2018-07-08T19:21:33.339Z,22.70
2018-07-08T19:24:02.222Z,22.80
2018-07-08T19:26:31.712Z,22.60
2018-07-08T19:29:00.987Z,22.60
2018-07-08T19:31:29.730Z,22.60
2018-07-08T19:33:58.900Z,22.50
2018-07-08T19:36:27.749Z,22.50
2018-07-08T19:38:56.643Z,22.40
2018-07-08T19:41:25.414Z,22.30
2018-07-08T19:43:56.765Z,22.30
2018-07-08T19:46:25.682Z,22.10
2018-07-08T19:48:55.063Z,22.10
2018-07-08T19:51:24.504Z,22.10
2018-07-08T19:53:53.201Z,22.00
2018-07-08T19:56:21.966Z,21.90
2018-07-08T19:58:50.826Z,21.70
2018-07-08T20:01:19.591Z,21.60
2018-07-08T20:03:48.528Z,21.50
2018-07-08T20:06:17.292Z,21.40
2018-07-08T20:08:46.098Z,21.40
2018-07-08T20:11:14.986Z,21.30
2018-07-08T20:13:43.770Z,21.30
2018-07-08T20:16:12.545Z,21.20
2018-07-08T20:18:41.390Z,21.10
2018-07-08T20:21:10.994Z,21.00
2018-07-08T20:23:39.809Z,20.90
2018-07-08T20:26:08.597Z,20.90
2018-07-08T20:28:37.377Z,20.80
2018-07-08T20:31:06.195Z,20.80
2018-07-08T20:33:35.558Z,20.70
2018-07-08T20:36:04.324Z,20.60
2018-07-08T20:38:33.767Z,20.50
2018-07-08T20:41:03.421Z,20.40
2018-07-08T20:43:32.347Z,20.50
2018-07-08T20:46:01.750Z,20.30
2018-07-08T20:50:58.916Z,20.10
2018-07-08T20:53:27.784Z,20.00
2018-07-08T20:55:56.603Z,19.90
2018-07-08T20:58:25.478Z,20.00
2018-07-08T21:00:54.324Z,19.80
2018-07-08T21:03:23.758Z,19.70
2018-07-08T21:05:52.677Z,19.70
2018-07-08T21:08:21.531Z,19.40
2018-07-08T21:10:50.325Z,19.40
2018-07-08T21:13:19.029Z,19.30
2018-07-08T21:15:47.789Z,19.30
2018-07-08T21:18:16.962Z,19.30
2018-07-08T21:20:45.739Z,19.30
2018-07-08T21:23:14.771Z,19.20
2018-07-08T21:25:44.685Z,19.20
2018-07-08T21:28:13.566Z,19.10
2018-07-08T21:30:42.752Z,18.90
2018-07-08T21:33:11.732Z,18.90
2018-07-08T21:35:40.548Z,18.90
2018-07-08T21:38:09.306Z,18.80
2018-07-08T21:40:38.972Z,18.80
2018-07-08T21:43:07.762Z,18.80
2018-07-08T21:45:36.563Z,18.70
2018-07-08T21:48:05.407Z,18.60
2018-07-08T21:50:34.147Z,18.70
2018-07-08T21:53:02.911Z,18.60
2018-07-08T21:55:31.773Z,18.50
2018-07-08T21:58:00.465Z,18.50
2018-07-08T22:00:32.131Z,18.50
2018-07-08T22:03:01.287Z,18.60
2018-07-08T22:05:31.310Z,18.50
2018-07-08T22:08:05.934Z,18.40
2018-07-08T22:10:34.682Z,18.40
2018-07-08T22:13:04.067Z,18.40
2018-07-08T22:15:32.802Z,18.30
2018-07-08T22:18:01.489Z,18.30
2018-07-08T22:20:30.146Z,18.30
2018-07-08T22:22:58.811Z,18.20
2018-07-08T22:25:27.534Z,18.30
2018-07-08T22:27:56.246Z,18.20
2018-07-08T22:30:24.969Z,18.20
2018-07-08T22:32:53.721Z,18.20
2018-07-08T22:35:22.448Z,18.20
2018-07-08T22:37:51.219Z,18.20
2018-07-08T22:40:19.877Z,18.20
2018-07-08T22:42:48.563Z,18.10
2018-07-08T22:45:17.283Z,18.00
2018-07-08T22:47:45.977Z,18.00
2018-07-08T22:50:14.680Z,17.90
2018-07-08T22:52:43.477Z,17.90
2018-07-08T22:55:12.213Z,17.80
2018-07-08T22:57:40.917Z,17.70
2018-07-08T23:00:20.752Z,17.70
2018-07-08T23:02:54.354Z,17.70
2018-07-08T23:05:23.074Z,17.70
2018-07-08T23:07:51.841Z,17.70
2018-07-08T23:10:20.606Z,17.70
2018-07-08T23:12:50.084Z,17.60
2018-07-08T23:15:18.930Z,17.70
2018-07-08T23:17:47.664Z,17.70
2018-07-08T23:20:16.653Z,17.70
2018-07-08T23:22:55.911Z,17.70
2018-07-08T23:25:24.646Z,17.80
2018-07-08T23:27:53.781Z,17.80
2018-07-08T23:30:22.581Z,17.70
2018-07-08T23:32:51.383Z,17.70
2018-07-08T23:35:20.091Z,17.70
2018-07-08T23:37:48.953Z,17.50
2018-07-08T23:40:17.678Z,17.60
2018-07-08T23:42:46.461Z,17.60
2018-07-08T23:45:19.241Z,17.50
2018-07-08T23:47:48.645Z,17.50
2018-07-08T23:50:17.370Z,17.50
2018-07-08T23:52:46.087Z,17.50
2018-07-08T23:55:14.732Z,17.40
2018-07-08T23:57:43.429Z,17.30
